sensor_id;sensor_type;location;lat;lon;timestamp;pressure;altitude;pressure_sealevel;temperature;humidity
14757;BME280;62446;53.214;10.398;2022-08-05T00:01:20;101127.59;;;23.41;51.30
14757;BME280;62446;53.214;10.398;2022-08-05T00:04:31;101134.38;;;23.40;51.30
14757;BME280;62446;53.214;10.398;2022-08-05T00:07:35;101134.69;;;23.38;51.42
14757;BME280;62446;53.214;10.398;2022-08-05T00:11:00;101135.84;;;23.37;51.41
14757;BME280;62446;53.214;10.398;2022-08-05T00:14:04;101138.97;;;23.36;51.30
14757;BME280;62446;53.214;10.398;2022-08-05T00:17:18;101146.59;;;23.35;51.46
14757;BME280;62446;53.214;10.398;2022-08-05T00:20:23;101145.72;;;23.35;51.25
14757;BME280;62446;53.214;10.398;2022-08-05T00:23:30;101147.41;;;23.36;51.35
14757;BME280;62446;53.214;10.398;2022-08-05T00:26:48;101146.91;;;23.34;51.35
14757;BME280;62446;53.214;10.398;2022-08-05T00:29:53;101153.34;;;23.34;51.43
14757;BME280;62446;53.214;10.398;2022-08-05T00:32:57;101156.16;;;23.34;51.34
14757;BME280;62446;53.214;10.398;2022-08-05T00:36:03;101148.03;;;23.33;51.49
14757;BME280;62446;53.214;10.398;2022-08-05T00:39:27;101146.34;;;23.32;51.25
14757;BME280;62446;53.214;10.398;2022-08-05T00:42:43;101161.56;;;23.31;51.44
14757;BME280;62446;53.214;10.398;2022-08-05T00:45:51;101159.06;;;23.29;51.21
14757;BME280;62446;53.214;10.398;2022-08-05T00:48:55;101148.66;;;23.30;51.37
14757;BME280;62446;53.214;10.398;2022-08-05T00:52:01;101154.28;;;23.30;51.29
14757;BME280;62446;53.214;10.398;2022-08-05T00:55:05;101159.06;;;23.29;51.22
14757;BME280;62446;53.214;10.398;2022-08-05T00:58:11;101171.16;;;23.30;51.23
14757;BME280;62446;53.214;10.398;2022-08-05T01:01:15;101185.53;;;23.28;51.31
14757;BME280;62446;53.214;10.398;2022-08-05T01:04:39;101200.72;;;23.27;51.32
14757;BME280;62446;53.214;10.398;2022-08-05T01:07:46;101197.06;;;23.26;51.29
14757;BME280;62446;53.214;10.398;2022-08-05T01:11:13;101195.06;;;23.27;51.29
14757;BME280;62446;53.214;10.398;2022-08-05T01:14:32;101194.25;;;23.26;51.18
14757;BME280;62446;53.214;10.398;2022-08-05T01:17:43;101186.94;;;23.25;51.33
14757;BME280;62446;53.214;10.398;2022-08-05T01:21:02;101196.53;;;23.24;51.25
14757;BME280;62446;53.214;10.398;2022-08-05T01:24:25;101188.09;;;23.24;51.44
14757;BME280;62446;53.214;10.398;2022-08-05T01:28:12;101177.97;;;23.23;51.21
14757;BME280;62446;53.214;10.398;2022-08-05T01:31:22;101206.94;;;23.24;51.32
14757;BME280;62446;53.214;10.398;2022-08-05T01:34:32;101215.69;;;23.22;51.38
14757;BME280;62446;53.214;10.398;2022-08-05T01:37:43;101204.44;;;23.22;51.27
14757;BME280;62446;53.214;10.398;2022-08-05T01:40:48;101203.59;;;23.22;51.34
14757;BME280;62446;53.214;10.398;2022-08-05T01:43:55;101195.47;;;23.20;51.28
14757;BME280;62446;53.214;10.398;2022-08-05T01:47:00;101181.41;;;23.20;51.16
14757;BME280;62446;53.214;10.398;2022-08-05T01:50:11;101155.25;;;23.20;51.33
14757;BME280;62446;53.214;10.398;2022-08-05T01:53:18;101135.88;;;23.18;51.23
14757;BME280;62446;53.214;10.398;2022-08-05T01:56:45;101128.59;;;23.17;51.23
14757;BME280;62446;53.214;10.398;2022-08-05T02:00:12;101110.06;;;23.16;51.37
14757;BME280;62446;53.214;10.398;2022-08-05T02:03:19;101113.69;;;23.17;51.31
14757;BME280;62446;53.214;10.398;2022-08-05T02:06:33;101116.81;;;23.15;51.05
14757;BME280;62446;53.214;10.398;2022-08-05T02:09:40;101121.91;;;23.13;51.52
14757;BME280;62446;53.214;10.398;2022-08-05T02:12:51;101116.28;;;23.13;51.28
14757;BME280;62446;53.214;10.398;2022-08-05T02:16:02;101115.47;;;23.13;51.26
14757;BME280;62446;53.214;10.398;2022-08-05T02:19:11;101123.06;;;23.12;51.26
14757;BME280;62446;53.214;10.398;2022-08-05T02:22:20;101124.22;;;23.11;51.33
14757;BME280;62446;53.214;10.398;2022-08-05T02:25:33;101116.91;;;23.10;51.22
14757;BME280;62446;53.214;10.398;2022-08-05T02:28:53;101111.28;;;23.10;51.31
14757;BME280;62446;53.214;10.398;2022-08-05T02:32:01;101123.69;;;23.09;51.40
14757;BME280;62446;53.214;10.398;2022-08-05T02:35:10;101126.50;;;23.09;51.30
14757;BME280;62446;53.214;10.398;2022-08-05T02:38:21;101124.81;;;23.08;51.31
14757;BME280;62446;53.214;10.398;2022-08-05T02:41:31;101124.31;;;23.06;51.34
14757;BME280;62446;53.214;10.398;2022-08-05T02:44:56;101127.13;;;23.06;51.30
14757;BME280;62446;53.214;10.398;2022-08-05T02:48:04;101107.44;;;23.06;51.31
14757;BME280;62446;53.214;10.398;2022-08-05T02:51:14;101097.31;;;23.05;51.39
14757;BME280;62446;53.214;10.398;2022-08-05T02:54:30;101108.03;;;23.03;51.41
14757;BME280;62446;53.214;10.398;2022-08-05T02:57:39;101140.66;;;23.04;51.42
14757;BME280;62446;53.214;10.398;2022-08-05T03:01:04;101184.81;;;23.03;51.42
14757;BME280;62446;53.214;10.398;2022-08-05T03:04:14;101163.13;;;23.04;51.40
14757;BME280;62446;53.214;10.398;2022-08-05T03:07:18;101137.31;;;23.02;51.33
14757;BME280;62446;53.214;10.398;2022-08-05T03:10:43;101118.78;;;23.01;51.37
14757;BME280;62446;53.214;10.398;2022-08-05T03:14:08;101117.09;;;23.00;51.31
14757;BME280;62446;53.214;10.398;2022-08-05T03:17:15;101076.09;;;22.99;51.38
14757;BME280;62446;53.214;10.398;2022-08-05T03:20:23;101053.59;;;22.99;51.47
14757;BME280;62446;53.214;10.398;2022-08-05T03:23:28;101029.41;;;22.98;51.37
14757;BME280;62446;53.214;10.398;2022-08-05T03:26:36;101029.41;;;22.98;51.38
14757;BME280;62446;53.214;10.398;2022-08-05T03:29:40;101055.84;;;22.97;51.30
14757;BME280;62446;53.214;10.398;2022-08-05T03:33:05;101061.47;;;22.97;51.47
14757;BME280;62446;53.214;10.398;2022-08-05T03:36:10;101049.41;;;22.96;51.54
14757;BME280;62446;53.214;10.398;2022-08-05T03:39:15;101058.16;;;22.94;51.44
14757;BME280;62446;53.214;10.398;2022-08-05T03:42:28;101060.97;;;22.94;51.35
14757;BME280;62446;53.214;10.398;2022-08-05T03:45:34;101069.41;;;22.94;51.19
14757;BME280;62446;53.214;10.398;2022-08-05T03:48:58;101075.03;;;22.94;51.29
14757;BME280;62446;53.214;10.398;2022-08-05T03:52:09;101067.72;;;22.93;51.29
14757;BME280;62446;53.214;10.398;2022-08-05T03:55:36;101070.53;;;22.93;51.37
14757;BME280;62446;53.214;10.398;2022-08-05T03:59:06;101065.72;;;22.94;51.39
14757;BME280;62446;53.214;10.398;2022-08-05T04:02:12;101071.59;;;22.98;51.31
14757;BME280;62446;53.214;10.398;2022-08-05T04:05:37;101076.09;;;22.99;51.18
14757;BME280;62446;53.214;10.398;2022-08-05T04:08:45;101081.69;;;22.99;51.16
14757;BME280;62446;53.214;10.398;2022-08-05T04:11:50;101076.09;;;22.99;51.00
14757;BME280;62446;53.214;10.398;2022-08-05T04:14:54;101082.84;;;22.98;51.14
14757;BME280;62446;53.214;10.398;2022-08-05T04:18:01;101086.47;;;22.98;50.97
14757;BME280;62446;53.214;10.398;2022-08-05T04:21:09;101103.66;;;22.97;51.27
14757;BME280;62446;53.214;10.398;2022-08-05T04:24:22;101106.47;;;22.97;51.05
14757;BME280;62446;53.214;10.398;2022-08-05T04:27:28;101134.59;;;22.97;51.07
14757;BME280;62446;53.214;10.398;2022-08-05T04:30:43;101143.03;;;22.97;51.12
14757;BME280;62446;53.214;10.398;2022-08-05T04:33:49;101149.81;;;22.96;51.18
14757;BME280;62446;53.214;10.398;2022-08-05T04:37:13;101149.81;;;22.96;50.99
14757;BME280;62446;53.214;10.398;2022-08-05T04:40:19;101138.56;;;22.96;51.02
14757;BME280;62446;53.214;10.398;2022-08-05T04:43:23;101142.50;;;22.94;51.10
14757;BME280;62446;53.214;10.398;2022-08-05T04:46:27;101140.00;;;22.93;51.06
14757;BME280;62446;53.214;10.398;2022-08-05T04:49:31;101152.06;;;22.93;50.95
14757;BME280;62446;53.214;10.398;2022-08-05T04:52:55;101164.44;;;22.92;51.11
14757;BME280;62446;53.214;10.398;2022-08-05T04:56:00;101172.88;;;22.92;50.97
14757;BME280;62446;53.214;10.398;2022-08-05T04:59:24;101198.19;;;22.92;51.11
14757;BME280;62446;53.214;10.398;2022-08-05T05:02:42;101190.91;;;22.91;50.91
14757;BME280;62446;53.214;10.398;2022-08-05T05:05:46;101208.09;;;22.90;51.05
14757;BME280;62446;53.214;10.398;2022-08-05T05:09:11;101199.97;;;22.88;51.14
14757;BME280;62446;53.214;10.398;2022-08-05T05:12:20;101196.63;;;22.86;51.12
14757;BME280;62446;53.214;10.398;2022-08-05T05:15:28;101192.66;;;22.87;51.19
14757;BME280;62446;53.214;10.398;2022-08-05T05:18:52;101193.81;;;22.86;51.03
14757;BME280;62446;53.214;10.398;2022-08-05T05:22:16;101194.94;;;22.85;51.16
14757;BME280;62446;53.214;10.398;2022-08-05T05:25:27;101198.91;;;22.84;51.01
14757;BME280;62446;53.214;10.398;2022-08-05T05:28:43;101202.53;;;22.85;51.26
14757;BME280;62446;53.214;10.398;2022-08-05T05:31:47;101197.22;;;22.83;51.04
14757;BME280;62446;53.214;10.398;2022-08-05T05:34:52;101206.78;;;22.82;51.06
14757;BME280;62446;53.214;10.398;2022-08-05T05:37:57;101207.66;;;22.83;51.11
14757;BME280;62446;53.214;10.398;2022-08-05T05:41:03;101212.41;;;22.82;51.14
14757;BME280;62446;53.214;10.398;2022-08-05T05:44:10;101198.66;;;22.81;51.14
14757;BME280;62446;53.214;10.398;2022-08-05T05:47:34;101212.72;;;22.81;50.93
14757;BME280;62446;53.214;10.398;2022-08-05T05:50:58;101214.72;;;22.80;51.05
14757;BME280;62446;53.214;10.398;2022-08-05T05:54:17;101206.28;;;22.80;51.13
14757;BME280;62446;53.214;10.398;2022-08-05T05:57:21;101211.38;;;22.78;51.02
14757;BME280;62446;53.214;10.398;2022-08-05T06:00:27;101211.38;;;22.78;51.13
14757;BME280;62446;53.214;10.398;2022-08-05T06:03:35;101217.00;;;22.78;51.27
14757;BME280;62446;53.214;10.398;2022-08-05T06:06:59;101211.13;;;22.74;50.28
14757;BME280;62446;53.214;10.398;2022-08-05T06:10:04;101212.25;;;22.54;49.46
14757;BME280;62446;53.214;10.398;2022-08-05T06:13:11;101202.38;;;22.38;49.16
14757;BME280;62446;53.214;10.398;2022-08-05T06:16:17;101199.19;;;22.26;49.19
14757;BME280;62446;53.214;10.398;2022-08-05T06:19:32;101204.94;;;22.15;49.21
14757;BME280;62446;53.214;10.398;2022-08-05T06:22:37;101189.88;;;22.06;49.30
14757;BME280;62446;53.214;10.398;2022-08-05T06:25:43;101189.97;;;22.01;49.26
14757;BME280;62446;53.214;10.398;2022-08-05T06:29:07;101184.41;;;21.96;49.44
14757;BME280;62446;53.214;10.398;2022-08-05T06:32:32;101183.06;;;21.88;49.65
14757;BME280;62446;53.214;10.398;2022-08-05T06:35:36;101193.53;;;21.82;49.57
14757;BME280;62446;53.214;10.398;2022-08-05T06:39:00;101203.97;;;21.77;49.98
14757;BME280;62446;53.214;10.398;2022-08-05T06:42:05;101189.41;;;21.75;49.67
14757;BME280;62446;53.214;10.398;2022-08-05T06:45:09;101185.22;;;21.72;49.94
14757;BME280;62446;53.214;10.398;2022-08-05T06:48:24;101184.69;;;21.70;50.30
14757;BME280;62446;53.214;10.398;2022-08-05T06:51:48;101202.00;;;21.77;50.27
14757;BME280;62446;53.214;10.398;2022-08-05T06:54:52;101198.53;;;21.85;50.32
14757;BME280;62446;53.214;10.398;2022-08-05T06:57:56;101185.00;;;21.93;49.94
14757;BME280;62446;53.214;10.398;2022-08-05T07:01:20;101182.38;;;22.01;49.93
14757;BME280;62446;53.214;10.398;2022-08-05T07:04:30;101184.53;;;22.10;50.03
14757;BME280;62446;53.214;10.398;2022-08-05T07:07:34;101174.34;;;22.14;50.08
14757;BME280;62446;53.214;10.398;2022-08-05T07:10:45;101159.41;;;22.18;49.91
14757;BME280;62446;53.214;10.398;2022-08-05T07:13:55;101164.41;;;22.21;49.78
14757;BME280;62446;53.214;10.398;2022-08-05T07:17:31;101179.53;;;22.26;49.47
14757;BME280;62446;53.214;10.398;2022-08-05T07:20:56;101190.47;;;22.27;49.60
14757;BME280;62446;53.214;10.398;2022-08-05T07:24:07;101200.25;;;22.30;49.79
14757;BME280;62446;53.214;10.398;2022-08-05T07:27:12;101207.53;;;22.31;49.71
14757;BME280;62446;53.214;10.398;2022-08-05T07:30:16;101221.56;;;22.31;49.71
14757;BME280;62446;53.214;10.398;2022-08-05T07:33:31;101235.63;;;22.31;49.51
14757;BME280;62446;53.214;10.398;2022-08-05T07:36:40;101240.09;;;22.32;49.55
14757;BME280;62446;53.214;10.398;2022-08-05T07:39:44;101237.31;;;22.32;49.60
14757;BME280;62446;53.214;10.398;2022-08-05T07:43:08;101258.09;;;22.31;49.75
14757;BME280;62446;53.214;10.398;2022-08-05T07:46:22;101264.56;;;22.31;49.78
14757;BME280;62446;53.214;10.398;2022-08-05T07:49:27;101262.88;;;22.30;50.00
14757;BME280;62446;53.214;10.398;2022-08-05T07:52:37;101264.56;;;22.31;49.46
14757;BME280;62446;53.214;10.398;2022-08-05T07:55:41;101262.06;;;22.30;49.99
14757;BME280;62446;53.214;10.398;2022-08-05T07:59:05;101273.00;;;22.31;49.90
14757;BME280;62446;53.214;10.398;2022-08-05T08:02:10;101273.28;;;22.30;50.04
14757;BME280;62446;53.214;10.398;2022-08-05T08:05:18;101272.13;;;22.31;49.80
14757;BME280;62446;53.214;10.398;2022-08-05T08:08:24;101290.97;;;22.30;50.04
14757;BME280;62446;53.214;10.398;2022-08-05T08:11:27;101291.81;;;22.31;49.84
14757;BME280;62446;53.214;10.398;2022-08-05T08:14:52;101295.75;;;22.30;49.76
14757;BME280;62446;53.214;10.398;2022-08-05T08:17:55;101278.91;;;22.30;50.07
14757;BME280;62446;53.214;10.398;2022-08-05T08:21:04;101261.19;;;22.29;50.05
14757;BME280;62446;53.214;10.398;2022-08-05T08:24:18;101270.50;;;22.30;49.99
14757;BME280;62446;53.214;10.398;2022-08-05T08:27:42;101273.28;;;22.30;49.84
14757;BME280;62446;53.214;10.398;2022-08-05T08:30:52;101270.50;;;22.30;49.81
14757;BME280;62446;53.214;10.398;2022-08-05T08:33:56;101266.81;;;22.29;50.05
14757;BME280;62446;53.214;10.398;2022-08-05T08:37:01;101267.69;;;22.30;50.06
14757;BME280;62446;53.214;10.398;2022-08-05T08:40:09;101262.88;;;22.30;49.95
14757;BME280;62446;53.214;10.398;2022-08-05T08:43:13;101246.34;;;22.29;50.00
14757;BME280;62446;53.214;10.398;2022-08-05T08:46:40;101250.81;;;22.30;50.05
14757;BME280;62446;53.214;10.398;2022-08-05T08:49:45;101246.34;;;22.29;49.90
14757;BME280;62446;53.214;10.398;2022-08-05T08:53:15;101254.75;;;22.29;50.11
14757;BME280;62446;53.214;10.398;2022-08-05T08:56:21;101260.38;;;22.29;49.98
14757;BME280;62446;53.214;10.398;2022-08-05T08:59:28;101266.00;;;22.29;49.79
14757;BME280;62446;53.214;10.398;2022-08-05T09:02:35;101271.63;;;22.29;49.96
14757;BME280;62446;53.214;10.398;2022-08-05T09:05:41;101274.41;;;22.29;49.98
14757;BME280;62446;53.214;10.398;2022-08-05T09:09:04;101271.63;;;22.29;49.96
14757;BME280;62446;53.214;10.398;2022-08-05T09:12:10;101271.63;;;22.29;50.01
14757;BME280;62446;53.214;10.398;2022-08-05T09:15:22;101284.53;;;22.30;49.89
14757;BME280;62446;53.214;10.398;2022-08-05T09:18:27;101277.22;;;22.29;49.85
14757;BME280;62446;53.214;10.398;2022-08-05T09:21:31;101266.81;;;22.29;49.98
14757;BME280;62446;53.214;10.398;2022-08-05T09:24:56;101270.50;;;22.30;50.08
14757;BME280;62446;53.214;10.398;2022-08-05T09:28:14;101273.28;;;22.30;49.84
14757;BME280;62446;53.214;10.398;2022-08-05T09:31:22;101266.81;;;22.29;49.93
14757;BME280;62446;53.214;10.398;2022-08-05T09:34:47;101267.69;;;22.30;49.91
14757;BME280;62446;53.214;10.398;2022-08-05T09:37:53;101260.38;;;22.29;49.73
14757;BME280;62446;53.214;10.398;2022-08-05T09:41:17;101262.06;;;22.30;50.02
14757;BME280;62446;53.214;10.398;2022-08-05T09:44:36;101268.81;;;22.29;50.14
14757;BME280;62446;53.214;10.398;2022-08-05T09:47:41;101266.81;;;22.29;49.97
14757;BME280;62446;53.214;10.398;2022-08-05T09:50:59;101282.84;;;22.29;50.08
14757;BME280;62446;53.214;10.398;2022-08-05T09:54:04;101277.22;;;22.29;49.79
14757;BME280;62446;53.214;10.398;2022-08-05T09:57:29;101270.75;;;22.28;49.83
14757;BME280;62446;53.214;10.398;2022-08-05T10:00:38;101276.38;;;22.28;50.01
14757;BME280;62446;53.214;10.398;2022-08-05T10:03:54;101277.22;;;22.29;50.04
14757;BME280;62446;53.214;10.398;2022-08-05T10:07:01;101278.34;;;22.28;50.08
14757;BME280;62446;53.214;10.398;2022-08-05T10:10:24;101287.34;;;22.30;49.84
14757;BME280;62446;53.214;10.398;2022-08-05T10:13:35;101278.34;;;22.28;49.70
14757;BME280;62446;53.214;10.398;2022-08-05T10:16:51;101285.09;;;22.27;49.93
14757;BME280;62446;53.214;10.398;2022-08-05T10:19:57;101291.28;;;22.29;49.76
14757;BME280;62446;53.214;10.398;2022-08-05T10:23:12;101293.22;;;22.28;49.85
14757;BME280;62446;53.214;10.398;2022-08-05T10:26:36;101294.09;;;22.29;49.90
14757;BME280;62446;53.214;10.398;2022-08-05T10:29:53;101304.75;;;22.27;50.06
14757;BME280;62446;53.214;10.398;2022-08-05T10:33:19;101307.56;;;22.27;50.01
14757;BME280;62446;53.214;10.398;2022-08-05T10:36:24;101305.94;;;22.26;49.88
14757;BME280;62446;53.214;10.398;2022-08-05T10:39:31;101308.72;;;22.26;49.91
14757;BME280;62446;53.214;10.398;2022-08-05T10:43:01;101319.97;;;22.26;49.94
14757;BME280;62446;53.214;10.398;2022-08-05T10:46:15;101309.03;;;22.24;50.08
14757;BME280;62446;53.214;10.398;2022-08-05T10:49:22;101306.22;;;22.24;50.13
14757;BME280;62446;53.214;10.398;2022-08-05T10:52:38;101313.78;;;22.23;49.95
14757;BME280;62446;53.214;10.398;2022-08-05T10:56:10;101319.41;;;22.23;50.17
14757;BME280;62446;53.214;10.398;2022-08-05T10:59:25;101318.28;;;22.24;50.33
14757;BME280;62446;53.214;10.398;2022-08-05T11:03:11;101318.34;;;22.19;49.92
14757;BME280;62446;53.214;10.398;2022-08-05T11:06:31;101314.16;;;22.17;50.61
14757;BME280;62446;53.214;10.398;2022-08-05T11:09:41;101317.88;;;22.12;50.26
14757;BME280;62446;53.214;10.398;2022-08-05T11:12:48;101325.75;;;22.10;50.76
14757;BME280;62446;53.214;10.398;2022-08-05T11:16:20;101333.66;;;22.08;50.90
14757;BME280;62446;53.214;10.398;2022-08-05T11:19:45;101328.84;;;22.09;50.82
14757;BME280;62446;53.214;10.398;2022-08-05T11:23:34;101318.81;;;22.02;51.24
14757;BME280;62446;53.214;10.398;2022-08-05T11:31:22;101342.09;;;22.03;50.98
14757;BME280;62446;53.214;10.398;2022-08-05T11:34:49;101348.56;;;22.03;50.93
14757;BME280;62446;53.214;10.398;2022-08-05T11:37:59;101374.59;;;22.09;50.92
14757;BME280;62446;53.214;10.398;2022-08-05T11:41:25;101386.34;;;22.16;50.84
14757;BME280;62446;53.214;10.398;2022-08-05T11:44:49;101384.00;;;22.23;50.65
14757;BME280;62446;53.214;10.398;2022-08-05T11:47:56;101387.38;;;22.26;50.87
14757;BME280;62446;53.214;10.398;2022-08-05T11:51:00;101405.34;;;22.24;51.11
14757;BME280;62446;53.214;10.398;2022-08-05T11:54:05;101422.22;;;22.24;50.86
14757;BME280;62446;53.214;10.398;2022-08-05T11:57:11;101443.84;;;22.24;50.65
14757;BME280;62446;53.214;10.398;2022-08-05T12:00:29;101457.34;;;22.22;50.71
14757;BME280;62446;53.214;10.398;2022-08-05T12:03:42;101462.94;;;22.22;50.67
14757;BME280;62446;53.214;10.398;2022-08-05T12:06:58;101462.66;;;22.23;50.77
14757;BME280;62446;53.214;10.398;2022-08-05T12:10:06;101480.06;;;22.26;50.36
14757;BME280;62446;53.214;10.398;2022-08-05T12:13:16;101472.78;;;22.24;50.27
14757;BME280;62446;53.214;10.398;2022-08-05T12:16:41;101488.78;;;22.24;50.69
14757;BME280;62446;53.214;10.398;2022-08-05T12:19:49;101491.59;;;22.24;50.42
14757;BME280;62446;53.214;10.398;2022-08-05T12:23:13;101476.69;;;22.23;50.31
14757;BME280;62446;53.214;10.398;2022-08-05T12:26:17;101464.94;;;22.21;50.51
14757;BME280;62446;53.214;10.398;2022-08-05T12:29:24;101474.19;;;22.22;50.40
14757;BME280;62446;53.214;10.398;2022-08-05T12:32:30;101459.31;;;22.21;50.06
14757;BME280;62446;53.214;10.398;2022-08-05T12:35:34;101435.16;;;22.20;50.05
14757;BME280;62446;53.214;10.398;2022-08-05T12:38:44;101437.97;;;22.20;50.00
14757;BME280;62446;53.214;10.398;2022-08-05T12:41:48;101437.97;;;22.20;50.15
14757;BME280;62446;53.214;10.398;2022-08-05T12:45:05;101443.59;;;22.20;50.12
14757;BME280;62446;53.214;10.398;2022-08-05T12:48:14;101444.72;;;22.19;50.14
14757;BME280;62446;53.214;10.398;2022-08-05T12:51:29;101459.91;;;22.18;50.09
14757;BME280;62446;53.214;10.398;2022-08-05T12:54:54;101470.00;;;22.19;50.18
14757;BME280;62446;53.214;10.398;2022-08-05T12:58:00;101467.78;;;22.16;50.38
14757;BME280;62446;53.214;10.398;2022-08-05T13:01:25;101464.97;;;22.16;50.03
14757;BME280;62446;53.214;10.398;2022-08-05T13:04:50;101471.75;;;22.15;50.06
14757;BME280;62446;53.214;10.398;2022-08-05T13:07:56;101477.66;;;22.14;50.38
14757;BME280;62446;53.214;10.398;2022-08-05T13:11:02;101476.78;;;22.13;50.43
14757;BME280;62446;53.214;10.398;2022-08-05T13:14:10;101472.88;;;22.14;50.51
14757;BME280;62446;53.214;10.398;2022-08-05T13:17:23;101472.88;;;22.14;50.22
14757;BME280;62446;53.214;10.398;2022-08-05T13:20:43;101479.59;;;22.13;50.18
14757;BME280;62446;53.214;10.398;2022-08-05T13:23:47;101466.72;;;22.12;49.97
14757;BME280;62446;53.214;10.398;2022-08-05T13:26:53;101469.53;;;22.12;50.49
14757;BME280;62446;53.214;10.398;2022-08-05T13:29:59;101475.13;;;22.12;50.28
14757;BME280;62446;53.214;10.398;2022-08-05T13:33:24;101475.13;;;22.12;50.09
14757;BME280;62446;53.214;10.398;2022-08-05T13:36:48;101474.28;;;22.12;49.98
14757;BME280;62446;53.214;10.398;2022-08-05T13:39:52;101467.84;;;22.11;50.22
14757;BME280;62446;53.214;10.398;2022-08-05T13:43:16;101461.38;;;22.11;50.23
14757;BME280;62446;53.214;10.398;2022-08-05T13:46:24;101479.06;;;22.11;50.24
14757;BME280;62446;53.214;10.398;2022-08-05T13:49:51;101470.66;;;22.11;49.84
14757;BME280;62446;53.214;10.398;2022-08-05T13:52:55;101472.59;;;22.11;50.07
14757;BME280;62446;53.214;10.398;2022-08-05T13:55:59;101471.19;;;22.13;50.25
14757;BME280;62446;53.214;10.398;2022-08-05T13:59:03;101480.75;;;22.12;50.00
14757;BME280;62446;53.214;10.398;2022-08-05T14:02:22;101483.56;;;22.12;50.03
14757;BME280;62446;53.214;10.398;2022-08-05T14:05:32;101477.94;;;22.12;50.00
14757;BME280;62446;53.214;10.398;2022-08-05T14:08:57;101475.13;;;22.12;50.11
14757;BME280;62446;53.214;10.398;2022-08-05T14:12:01;101476.25;;;22.11;49.95
14757;BME280;62446;53.214;10.398;2022-08-05T14:15:19;101480.19;;;22.10;50.14
14757;BME280;62446;53.214;10.398;2022-08-05T14:18:43;101479.06;;;22.11;50.10
14757;BME280;62446;53.214;10.398;2022-08-05T14:21:48;101467.84;;;22.11;50.14
14757;BME280;62446;53.214;10.398;2022-08-05T14:25:13;101466.72;;;22.12;49.82
14757;BME280;62446;53.214;10.398;2022-08-05T14:28:23;101467.84;;;22.11;50.06
14757;BME280;62446;53.214;10.398;2022-08-05T14:31:29;101473.44;;;22.11;49.92
14757;BME280;62446;53.214;10.398;2022-08-05T14:34:53;101475.13;;;22.12;49.78
14757;BME280;62446;53.214;10.398;2022-08-05T14:38:00;101479.59;;;22.13;49.93
14757;BME280;62446;53.214;10.398;2022-08-05T14:41:05;101484.09;;;22.14;50.15
14757;BME280;62446;53.214;10.398;2022-08-05T14:44:09;101488.03;;;22.13;49.94
14757;BME280;62446;53.214;10.398;2022-08-05T14:47:23;101502.06;;;22.13;50.01
14757;BME280;62446;53.214;10.398;2022-08-05T14:50:47;101493.66;;;22.13;50.10
14757;BME280;62446;53.214;10.398;2022-08-05T14:53:52;101487.50;;;22.11;50.03
14757;BME280;62446;53.214;10.398;2022-08-05T14:57:16;101483.00;;;22.10;50.06
14757;BME280;62446;53.214;10.398;2022-08-05T15:00:20;101501.53;;;22.11;50.19
14757;BME280;62446;53.214;10.398;2022-08-05T15:03:30;101495.06;;;22.11;49.94
14757;BME280;62446;53.214;10.398;2022-08-05T15:06:40;101495.06;;;22.11;50.19
14757;BME280;62446;53.214;10.398;2022-08-05T15:09:52;101506.28;;;22.11;50.22
14757;BME280;62446;53.214;10.398;2022-08-05T15:12:57;101505.47;;;22.10;50.22
14757;BME280;62446;53.214;10.398;2022-08-05T15:16:06;101522.31;;;22.10;50.25
14757;BME280;62446;53.214;10.398;2022-08-05T15:19:14;101517.53;;;22.11;50.08
14757;BME280;62446;53.214;10.398;2022-08-05T15:22:25;101513.91;;;22.10;50.18
14757;BME280;62446;53.214;10.398;2022-08-05T15:25:31;101519.50;;;22.10;49.83
14757;BME280;62446;53.214;10.398;2022-08-05T15:28:55;101519.22;;;22.12;49.78
14757;BME280;62446;53.214;10.398;2022-08-05T15:31:59;101516.41;;;22.12;50.03
14757;BME280;62446;53.214;10.398;2022-08-05T15:35:07;101517.25;;;22.12;50.01
14757;BME280;62446;53.214;10.398;2022-08-05T15:38:13;101524.84;;;22.12;49.93
14757;BME280;62446;53.214;10.398;2022-08-05T15:41:39;101524.00;;;22.11;50.32
14757;BME280;62446;53.214;10.398;2022-08-05T15:44:59;101527.34;;;22.13;50.20
14757;BME280;62446;53.214;10.398;2022-08-05T15:48:04;101533.56;;;22.10;50.08
14757;BME280;62446;53.214;10.398;2022-08-05T15:51:08;101530.75;;;22.10;49.99
14757;BME280;62446;53.214;10.398;2022-08-05T15:54:12;101530.75;;;22.10;50.28
14757;BME280;62446;53.214;10.398;2022-08-05T15:57:18;101527.09;;;22.10;50.17
14757;BME280;62446;53.214;10.398;2022-08-05T16:00:23;101537.47;;;22.09;50.15
14757;BME280;62446;53.214;10.398;2022-08-05T16:03:47;101535.81;;;22.08;50.15
14757;BME280;62446;53.214;10.398;2022-08-05T16:06:52;101523.72;;;22.07;50.25
14757;BME280;62446;53.214;10.398;2022-08-05T16:09:57;101521.78;;;22.08;49.96
14757;BME280;62446;53.214;10.398;2022-08-05T16:13:03;101524.00;;;22.11;50.17
14757;BME280;62446;53.214;10.398;2022-08-05T16:16:07;101522.31;;;22.10;50.17
14757;BME280;62446;53.214;10.398;2022-08-05T16:19:12;101523.16;;;22.11;50.05
14757;BME280;62446;53.214;10.398;2022-08-05T16:22:27;101529.63;;;22.11;50.24
14757;BME280;62446;53.214;10.398;2022-08-05T16:25:35;101528.75;;;22.11;50.11
14757;BME280;62446;53.214;10.398;2022-08-05T16:28:41;101533.22;;;22.17;49.81
14757;BME280;62446;53.214;10.398;2022-08-05T16:31:45;101525.63;;;22.17;50.00
14757;BME280;62446;53.214;10.398;2022-08-05T16:34:58;101526.75;;;22.16;49.99
14757;BME280;62446;53.214;10.398;2022-08-05T16:38:02;101533.53;;;22.15;50.01